Time;durP1;ratioP1;P1;durP2;ratioP2;P2;SDS_P1;SDS_P2;PMS_P1;PMS_P2;Temp;Humidity;BMP_temperature;BMP_pressure;BME280_temperature;BME280_humidity;BME280_pressure;Samples;Min_cycle;Max_cycle;Signal;HPM_P1;HPM_P2
2021/03/31 00:02:09;;;;;;;25.08;9.40;;;;;;;;;;5105787;28;20055;-62
2021/03/31 00:04:54;;;;;;;25.27;9.07;;;;;;;;;;5102546;27;20040;-62
2021/03/31 00:07:20;;;;;;;21.77;8.23;;;;;;;;;;5105429;28;20047;-64
2021/03/31 00:09:46;;;;;;;28.05;9.05;;;;;;;;;;5102907;28;20040;-61
2021/03/31 00:12:12;;;;;;;25.35;8.85;;;;;;;;;;5107435;28;20036;-60
2021/03/31 00:14:42;;;;;;;29.00;9.10;;;;;;;;;;5091573;28;20044;-61
2021/03/31 00:17:08;;;;;;;22.40;8.70;;;;;;;;;;5087072;28;20033;-60
2021/03/31 00:19:34;;;;;;;20.05;7.88;;;;;;;;;;5090209;28;20074;-64
2021/03/31 00:22:02;;;;;;;23.50;8.98;;;;;;;;;;5106983;28;20024;-61
2021/03/31 00:24:29;;;;;;;24.05;8.68;;;;;;;;;;5096276;28;20025;-61
2021/03/31 00:26:55;;;;;;;24.92;8.90;;;;;;;;;;5086372;28;20042;-60
2021/03/31 00:29:21;;;;;;;23.92;9.32;;;;;;;;;;5083538;28;20052;-61
2021/03/31 00:31:49;;;;;;;29.95;10.25;;;;;;;;;;5086769;27;20074;-60
2021/03/31 00:34:16;;;;;;;32.55;11.65;;;;;;;;;;5079872;28;20040;-62
2021/03/31 00:36:42;;;;;;;41.55;13.90;;;;;;;;;;5105815;28;20027;-65
2021/03/31 00:39:09;;;;;;;28.55;11.82;;;;;;;;;;5104746;28;20135;-65
2021/03/31 00:41:35;;;;;;;27.95;10.95;;;;;;;;;;5103226;28;20043;-65
2021/03/31 00:44:19;;;;;;;25.50;9.15;;;;;;;;;;5105589;28;20058;-62
2021/03/31 00:46:45;;;;;;;26.25;9.20;;;;;;;;;;5103014;28;20044;-65
2021/03/31 00:49:11;;;;;;;28.17;9.13;;;;;;;;;;5105416;28;20038;-65
2021/03/31 00:51:37;;;;;;;22.15;8.45;;;;;;;;;;5106010;28;20040;-65
2021/03/31 00:54:03;;;;;;;26.15;9.18;;;;;;;;;;5108232;28;20058;-64
2021/03/31 00:56:30;;;;;;;20.17;8.68;;;;;;;;;;5124173;27;20039;-65
2021/03/31 00:58:56;;;;;;;27.17;9.30;;;;;;;;;;5108733;28;20035;-63
2021/03/31 01:01:23;;;;;;;31.45;10.43;;;;;;;;;;5094356;28;20043;-66
2021/03/31 01:03:55;;;;;;;36.10;13.80;;;;;;;;;;5087212;28;20051;-64
2021/03/31 01:06:21;;;;;;;28.00;11.45;;;;;;;;;;5093459;28;20050;-65
2021/03/31 01:08:46;;;;;;;29.30;10.80;;;;;;;;;;5107672;28;20051;-63
2021/03/31 01:11:17;;;;;;;27.83;10.15;;;;;;;;;;5099675;28;20043;-63
2021/03/31 01:13:46;;;;;;;24.10;9.48;;;;;;;;;;5086366;28;20039;-63
2021/03/31 01:16:30;;;;;;;27.08;10.35;;;;;;;;;;5117434;27;20035;-64
2021/03/31 01:18:58;;;;;;;24.27;9.68;;;;;;;;;;5087723;28;20024;-64
2021/03/31 01:21:43;;;;;;;30.58;10.18;;;;;;;;;;5104881;27;20040;-62
2021/03/31 01:24:33;;;;;;;23.63;8.23;;;;;;;;;;5104074;27;20051;-65
2021/03/31 01:27:00;;;;;;;21.27;7.93;;;;;;;;;;5120235;27;20043;-61
2021/03/31 01:29:32;;;;;;;22.08;8.32;;;;;;;;;;5127699;27;20054;-63
2021/03/31 01:32:01;;;;;;;23.48;8.50;;;;;;;;;;5105323;28;20044;-64
2021/03/31 01:34:36;;;;;;;27.20;9.35;;;;;;;;;;5109048;28;20039;-61
2021/03/31 01:37:03;;;;;;;28.38;9.13;;;;;;;;;;5104763;27;20036;-61
2021/03/31 01:39:30;;;;;;;25.42;10.00;;;;;;;;;;5108916;28;20051;-63
2021/03/31 01:41:57;;;;;;;27.05;9.90;;;;;;;;;;5105946;27;20039;-65
2021/03/31 01:44:31;;;;;;;26.23;9.05;;;;;;;;;;5109229;28;20119;-64
2021/03/31 01:46:58;;;;;;;25.88;9.32;;;;;;;;;;5108727;28;20047;-61
2021/03/31 01:49:25;;;;;;;23.92;9.30;;;;;;;;;;5104359;27;20129;-60
2021/03/31 01:51:55;;;;;;;22.05;9.43;;;;;;;;;;5109339;28;20031;-61
2021/03/31 01:54:21;;;;;;;22.58;9.43;;;;;;;;;;5103728;28;20112;-60
2021/03/31 01:56:47;;;;;;;28.33;9.52;;;;;;;;;;5109002;28;20036;-62
2021/03/31 01:59:14;;;;;;;24.75;9.85;;;;;;;;;;5106397;28;20036;-62
2021/03/31 02:01:41;;;;;;;25.55;9.45;;;;;;;;;;5107192;28;20031;-61
2021/03/31 02:04:08;;;;;;;28.05;9.20;;;;;;;;;;5123056;27;20059;-61
2021/03/31 02:06:34;;;;;;;25.00;8.80;;;;;;;;;;5106380;28;20043;-64
2021/03/31 02:09:01;;;;;;;25.48;9.20;;;;;;;;;;5105321;28;20051;-63
2021/03/31 02:11:28;;;;;;;21.45;7.72;;;;;;;;;;5126614;27;20043;-65
2021/03/31 02:14:07;;;;;;;23.77;9.45;;;;;;;;;;5103605;28;20064;-65
2021/03/31 02:16:34;;;;;;;25.52;9.82;;;;;;;;;;5109006;28;20035;-65
2021/03/31 02:19:01;;;;;;;23.77;8.77;;;;;;;;;;5109985;27;20043;-64
2021/03/31 02:21:27;;;;;;;22.40;9.32;;;;;;;;;;5146674;27;20099;-66
2021/03/31 02:23:54;;;;;;;23.80;9.65;;;;;;;;;;5120557;27;20046;-66
2021/03/31 02:26:23;;;;;;;24.48;8.63;;;;;;;;;;5125067;27;20116;-66
2021/03/31 02:28:49;;;;;;;29.52;10.45;;;;;;;;;;5103126;27;20035;-62
2021/03/31 02:31:17;;;;;;;33.22;9.50;;;;;;;;;;5105666;28;20039;-63
2021/03/31 02:33:46;;;;;;;31.23;10.13;;;;;;;;;;5125539;27;20083;-63
2021/03/31 02:36:12;;;;;;;25.65;9.55;;;;;;;;;;5140667;27;20039;-63
2021/03/31 02:38:38;;;;;;;24.13;9.63;;;;;;;;;;5128216;27;20035;-64
2021/03/31 02:41:06;;;;;;;29.63;9.85;;;;;;;;;;5108046;27;20035;-65
2021/03/31 02:43:39;;;;;;;30.20;9.47;;;;;;;;;;5109483;28;20071;-63
2021/03/31 02:46:06;;;;;;;27.63;10.20;;;;;;;;;;5105853;28;20050;-66
2021/03/31 02:48:32;;;;;;;26.00;9.57;;;;;;;;;;5106084;28;20046;-62
2021/03/31 02:50:59;;;;;;;26.73;9.65;;;;;;;;;;5105523;28;20024;-64
2021/03/31 02:53:30;;;;;;;29.95;9.82;;;;;;;;;;5104462;28;20032;-65
2021/03/31 02:55:56;;;;;;;27.80;9.57;;;;;;;;;;5080884;28;20032;-61
2021/03/31 02:58:23;;;;;;;32.22;10.80;;;;;;;;;;5082823;28;20059;-65
2021/03/31 03:00:50;;;;;;;26.25;10.10;;;;;;;;;;5087587;27;20225;-61
2021/03/31 03:03:17;;;;;;;34.13;10.70;;;;;;;;;;5122585;27;20043;-61
2021/03/31 03:05:43;;;;;;;26.10;10.50;;;;;;;;;;5108328;28;20036;-63
2021/03/31 03:08:09;;;;;;;22.08;9.73;;;;;;;;;;5082276;28;20113;-64
2021/03/31 03:10:36;;;;;;;31.50;10.85;;;;;;;;;;5082330;28;20182;-63
2021/03/31 03:13:09;;;;;;;27.70;10.07;;;;;;;;;;5102370;28;20060;-63
2021/03/31 03:15:36;;;;;;;29.23;9.98;;;;;;;;;;5099243;28;20055;-64
2021/03/31 03:18:03;;;;;;;25.50;9.70;;;;;;;;;;5082192;28;20139;-63
2021/03/31 03:20:29;;;;;;;35.45;11.27;;;;;;;;;;5077528;28;20174;-59
2021/03/31 03:22:55;;;;;;;29.85;11.07;;;;;;;;;;5080716;28;20094;-61
2021/03/31 03:25:23;;;;;;;24.42;9.93;;;;;;;;;;5090119;28;20138;-60
2021/03/31 03:27:49;;;;;;;29.25;10.27;;;;;;;;;;5080643;28;20070;-60
2021/03/31 03:30:16;;;;;;;23.55;9.13;;;;;;;;;;5082994;28;20039;-63
2021/03/31 03:32:46;;;;;;;26.52;9.75;;;;;;;;;;5082194;28;20053;-61
2021/03/31 03:35:14;;;;;;;25.92;9.88;;;;;;;;;;5081654;28;20036;-65
2021/03/31 03:37:42;;;;;;;29.48;10.55;;;;;;;;;;5079675;28;20041;-66
2021/03/31 03:40:09;;;;;;;24.27;9.52;;;;;;;;;;5083822;28;20037;-65
2021/03/31 03:42:36;;;;;;;29.67;10.20;;;;;;;;;;5083380;28;20036;-61
2021/03/31 03:45:02;;;;;;;26.27;10.30;;;;;;;;;;5091227;28;20046;-61
2021/03/31 03:47:29;;;;;;;27.75;9.38;;;;;;;;;;5093092;28;20040;-64
2021/03/31 03:49:55;;;;;;;32.53;10.38;;;;;;;;;;5083476;28;20090;-64
2021/03/31 03:52:23;;;;;;;29.55;9.93;;;;;;;;;;5088360;28;20044;-65
2021/03/31 03:54:51;;;;;;;26.38;9.25;;;;;;;;;;5102563;28;20032;-66
2021/03/31 03:57:21;;;;;;;24.10;9.50;;;;;;;;;;5099215;28;20044;-64
2021/03/31 03:59:47;;;;;;;27.13;10.68;;;;;;;;;;5105089;28;20031;-63
2021/03/31 04:02:13;;;;;;;30.02;10.10;;;;;;;;;;5106792;28;20039;-64
2021/03/31 04:04:53;;;;;;;23.02;9.68;;;;;;;;;;5104879;27;20044;-60
2021/03/31 04:07:19;;;;;;;28.77;10.07;;;;;;;;;;5108198;27;20047;-64
2021/03/31 04:09:47;;;;;;;23.27;10.20;;;;;;;;;;5103818;27;20048;-60
2021/03/31 04:12:15;;;;;;;25.30;10.07;;;;;;;;;;5104953;28;20036;-61
2021/03/31 04:14:50;;;;;;;31.60;10.38;;;;;;;;;;5102325;28;20047;-62
2021/03/31 04:17:17;;;;;;;27.42;9.88;;;;;;;;;;5105152;28;20084;-63
2021/03/31 04:19:44;;;;;;;33.38;10.90;;;;;;;;;;5103188;28;20099;-61
2021/03/31 04:22:11;;;;;;;25.73;9.85;;;;;;;;;;5106187;28;20039;-64
2021/03/31 04:24:39;;;;;;;26.27;9.85;;;;;;;;;;5103022;28;20044;-61
2021/03/31 04:27:06;;;;;;;25.13;10.40;;;;;;;;;;5106389;28;20044;-61
2021/03/31 04:29:33;;;;;;;29.23;9.70;;;;;;;;;;5101329;28;20074;-64
2021/03/31 04:31:59;;;;;;;31.10;11.38;;;;;;;;;;5105517;28;20032;-65
2021/03/31 04:34:29;;;;;;;23.42;9.48;;;;;;;;;;5101229;28;20039;-62
2021/03/31 04:36:55;;;;;;;28.35;9.35;;;;;;;;;;5106389;28;20051;-64
2021/03/31 04:39:22;;;;;;;23.02;9.32;;;;;;;;;;5107703;28;20055;-65
2021/03/31 04:41:48;;;;;;;23.55;9.52;;;;;;;;;;5118732;27;20039;-60
2021/03/31 04:44:17;;;;;;;22.73;9.55;;;;;;;;;;5123591;27;20157;-62
2021/03/31 04:46:44;;;;;;;26.33;9.95;;;;;;;;;;5125149;27;20031;-62
2021/03/31 04:49:10;;;;;;;29.85;10.38;;;;;;;;;;5123005;27;20047;-65
2021/03/31 04:51:36;;;;;;;26.38;9.77;;;;;;;;;;5105303;27;20031;-64
2021/03/31 04:54:02;;;;;;;30.90;10.00;;;;;;;;;;5105524;28;20028;-64
2021/03/31 04:56:28;;;;;;;26.85;9.80;;;;;;;;;;5101123;28;20051;-66
2021/03/31 04:58:54;;;;;;;32.33;10.07;;;;;;;;;;5105079;28;20028;-64
2021/03/31 05:01:20;;;;;;;26.92;9.57;;;;;;;;;;5103036;28;20040;-61
2021/03/31 05:03:47;;;;;;;29.10;10.00;;;;;;;;;;5106084;28;20042;-64
2021/03/31 05:06:13;;;;;;;25.50;10.07;;;;;;;;;;5099465;28;20036;-64
2021/03/31 05:08:39;;;;;;;31.75;11.57;;;;;;;;;;5106327;28;20036;-64
2021/03/31 05:11:05;;;;;;;36.67;13.75;;;;;;;;;;5102281;28;20050;-62
2021/03/31 05:13:34;;;;;;;31.20;12.40;;;;;;;;;;5106514;28;20028;-65
2021/03/31 05:16:01;;;;;;;31.10;10.90;;;;;;;;;;5103582;28;20024;-62
2021/03/31 05:18:26;;;;;;;31.38;11.43;;;;;;;;;;5115398;28;20035;-65
2021/03/31 05:20:53;;;;;;;34.00;11.23;;;;;;;;;;5112376;27;20047;-64
2021/03/31 05:23:23;;;;;;;22.63;9.75;;;;;;;;;;5114797;27;20099;-65
2021/03/31 05:25:49;;;;;;;27.65;10.77;;;;;;;;;;5121298;27;20070;-60
2021/03/31 05:28:15;;;;;;;33.67;10.00;;;;;;;;;;5108636;27;20036;-63
2021/03/31 05:30:41;;;;;;;28.35;10.63;;;;;;;;;;5111390;27;20081;-64
2021/03/31 05:33:07;;;;;;;24.92;10.25;;;;;;;;;;5106473;27;20036;-65
2021/03/31 05:35:33;;;;;;;32.15;9.90;;;;;;;;;;5108658;27;20036;-60
2021/03/31 05:38:00;;;;;;;27.25;9.32;;;;;;;;;;5105359;27;20074;-65
2021/03/31 05:40:26;;;;;;;29.33;9.65;;;;;;;;;;5121226;27;20040;-63
2021/03/31 05:43:00;;;;;;;28.30;9.95;;;;;;;;;;5109687;27;20051;-64
2021/03/31 05:45:27;;;;;;;28.45;10.93;;;;;;;;;;5110997;27;20039;-65
2021/03/31 05:47:53;;;;;;;25.33;10.45;;;;;;;;;;5111085;27;20048;-63
2021/03/31 05:50:19;;;;;;;31.73;11.38;;;;;;;;;;5116781;27;20089;-64
2021/03/31 05:52:47;;;;;;;28.38;12.23;;;;;;;;;;5107295;27;20059;-61
2021/03/31 05:55:15;;;;;;;28.98;10.77;;;;;;;;;;5109029;28;20027;-64
2021/03/31 05:57:42;;;;;;;34.07;10.67;;;;;;;;;;5110249;27;20100;-64
2021/03/31 06:00:09;;;;;;;26.98;10.90;;;;;;;;;;5115338;27;20264;-64
2021/03/31 06:02:35;;;;;;;28.38;10.20;;;;;;;;;;5107582;27;20044;-65
2021/03/31 06:05:01;;;;;;;31.52;12.10;;;;;;;;;;5109547;27;20055;-61
2021/03/31 06:07:30;;;;;;;34.25;11.55;;;;;;;;;;5109374;27;20060;-64
2021/03/31 06:10:13;;;;;;;36.85;14.60;;;;;;;;;;5116211;27;20027;-63
2021/03/31 06:12:46;;;;;;;51.13;19.95;;;;;;;;;;5120069;27;20038;-61
2021/03/31 06:15:27;;;;;;;43.75;16.90;;;;;;;;;;5104191;27;20039;-63
2021/03/31 06:17:55;;;;;;;38.38;13.25;;;;;;;;;;5101293;28;20048;-61
2021/03/31 06:20:38;;;;;;;30.33;11.47;;;;;;;;;;5105115;27;20048;-64
2021/03/31 06:23:17;;;;;;;24.42;10.05;;;;;;;;;;5101834;28;20333;-61
2021/03/31 06:25:49;;;;;;;27.70;10.20;;;;;;;;;;5104102;27;20036;-60
2021/03/31 06:28:27;;;;;;;32.15;10.85;;;;;;;;;;5101740;28;20043;-63
2021/03/31 06:31:04;;;;;;;29.63;11.68;;;;;;;;;;5103796;27;20036;-61
2021/03/31 06:33:30;;;;;;;33.33;12.00;;;;;;;;;;5099411;28;20039;-63
2021/03/31 06:35:56;;;;;;;43.83;12.73;;;;;;;;;;5081854;28;20040;-63
2021/03/31 06:38:28;;;;;;;29.63;11.50;;;;;;;;;;5084911;28;20055;-60
2021/03/31 06:40:58;;;;;;;28.13;11.13;;;;;;;;;;5101460;28;20043;-64
2021/03/31 06:43:26;;;;;;;28.38;9.88;;;;;;;;;;5103006;28;20047;-63
2021/03/31 06:45:57;;;;;;;28.65;10.32;;;;;;;;;;5096208;27;20030;-62
2021/03/31 06:48:26;;;;;;;33.33;11.23;;;;;;;;;;5103606;28;20035;-62
2021/03/31 06:50:52;;;;;;;25.48;10.60;;;;;;;;;;5098774;28;20036;-64
2021/03/31 06:53:28;;;;;;;30.98;11.13;;;;;;;;;;5101430;28;20104;-64
2021/03/31 06:56:01;;;;;;;22.33;9.30;;;;;;;;;;5099292;28;20047;-64
2021/03/31 06:58:27;;;;;;;23.10;9.43;;;;;;;;;;5102592;28;20087;-61
2021/03/31 07:00:53;;;;;;;26.10;9.57;;;;;;;;;;5103361;28;20036;-60
2021/03/31 07:03:22;;;;;;;22.90;9.43;;;;;;;;;;5103013;28;20048;-60
2021/03/31 07:05:48;;;;;;;31.83;10.77;;;;;;;;;;5100845;28;20117;-62
2021/03/31 07:08:15;;;;;;;25.55;9.23;;;;;;;;;;5105541;28;20043;-65
2021/03/31 07:10:46;;;;;;;26.25;10.45;;;;;;;;;;5101542;28;20048;-60
2021/03/31 07:13:25;;;;;;;27.05;9.05;;;;;;;;;;5104472;28;20036;-64
2021/03/31 07:15:51;;;;;;;22.33;8.95;;;;;;;;;;5100296;28;20035;-62
2021/03/31 07:18:19;;;;;;;29.90;10.55;;;;;;;;;;5103372;28;20118;-64
2021/03/31 07:20:46;;;;;;;28.85;10.88;;;;;;;;;;5099050;28;20047;-64
2021/03/31 07:23:15;;;;;;;27.20;10.23;;;;;;;;;;5104531;28;20044;-65
2021/03/31 07:25:41;;;;;;;25.25;10.93;;;;;;;;;;5101212;27;20036;-64
2021/03/31 07:28:07;;;;;;;29.77;11.20;;;;;;;;;;5103467;28;20029;-60
2021/03/31 07:30:35;;;;;;;32.65;10.93;;;;;;;;;;5100491;28;20085;-60
2021/03/31 07:33:22;;;;;;;31.02;11.65;;;;;;;;;;5082487;28;20040;-60
2021/03/31 07:35:50;;;;;;;27.30;10.60;;;;;;;;;;5082926;28;20040;-63
2021/03/31 07:38:18;;;;;;;26.67;10.75;;;;;;;;;;5090160;28;20033;-65
2021/03/31 07:40:44;;;;;;;28.83;11.27;;;;;;;;;;5086852;28;20032;-64
2021/03/31 07:43:26;;;;;;;29.77;11.05;;;;;;;;;;5092531;28;20036;-62
2021/03/31 07:45:56;;;;;;;28.25;10.48;;;;;;;;;;5101313;28;20028;-60
2021/03/31 07:48:23;;;;;;;29.48;10.57;;;;;;;;;;5103608;28;20035;-64
2021/03/31 07:50:50;;;;;;;32.53;10.90;;;;;;;;;;5104889;27;20036;-62
2021/03/31 07:53:24;;;;;;;26.55;10.70;;;;;;;;;;5101358;27;20097;-60
2021/03/31 07:55:50;;;;;;;33.03;11.65;;;;;;;;;;5105278;27;20146;-64
2021/03/31 07:58:25;;;;;;;34.83;11.23;;;;;;;;;;5087686;28;20041;-64
2021/03/31 08:00:53;;;;;;;30.75;11.60;;;;;;;;;;5086176;27;20082;-63
2021/03/31 08:03:24;;;;;;;27.35;11.18;;;;;;;;;;5093750;28;20077;-61
2021/03/31 08:06:11;;;;;;;31.77;11.35;;;;;;;;;;5106773;28;20031;-63
2021/03/31 08:08:38;;;;;;;26.52;11.23;;;;;;;;;;5079989;28;20048;-64
2021/03/31 08:11:05;;;;;;;30.00;10.23;;;;;;;;;;5086150;28;20025;-61
2021/03/31 08:13:34;;;;;;;28.73;11.43;;;;;;;;;;5087002;28;20032;-60
2021/03/31 08:16:03;;;;;;;31.35;11.35;;;;;;;;;;5085311;28;20142;-62
2021/03/31 08:18:30;;;;;;;37.33;12.30;;;;;;;;;;5080419;28;20117;-60
2021/03/31 08:20:56;;;;;;;31.75;13.00;;;;;;;;;;5084377;28;20044;-60
2021/03/31 08:23:48;;;;;;;34.20;12.52;;;;;;;;;;5075358;28;20043;-63
2021/03/31 08:26:28;;;;;;;28.90;11.07;;;;;;;;;;5078153;28;20045;-62
2021/03/31 08:28:54;;;;;;;29.50;11.52;;;;;;;;;;5082047;28;20044;-63
2021/03/31 08:31:21;;;;;;;30.45;11.63;;;;;;;;;;5086736;28;20047;-60
2021/03/31 08:33:58;;;;;;;34.88;12.48;;;;;;;;;;5082166;28;20055;-64
2021/03/31 08:36:24;;;;;;;33.53;12.20;;;;;;;;;;5086880;28;20098;-63
2021/03/31 08:38:51;;;;;;;25.30;11.55;;;;;;;;;;5083768;28;20044;-65
2021/03/31 08:41:18;;;;;;;30.65;13.18;;;;;;;;;;5084843;28;20067;-64
2021/03/31 08:43:48;;;;;;;26.48;11.68;;;;;;;;;;5083613;28;20060;-64
2021/03/31 08:46:26;;;;;;;28.70;12.07;;;;;;;;;;5068597;28;20033;-62
2021/03/31 08:48:52;;;;;;;27.58;12.80;;;;;;;;;;5063308;28;20050;-63
2021/03/31 08:51:19;;;;;;;32.45;12.02;;;;;;;;;;5083150;27;20040;-61
2021/03/31 08:53:46;;;;;;;31.02;12.18;;;;;;;;;;5102004;27;20090;-60
2021/03/31 08:56:16;;;;;;;32.08;11.68;;;;;;;;;;5084154;28;20050;-61
2021/03/31 08:58:43;;;;;;;25.88;11.85;;;;;;;;;;5084678;28;20032;-61
2021/03/31 09:01:10;;;;;;;34.00;11.77;;;;;;;;;;5102440;27;20048;-61
2021/03/31 09:03:36;;;;;;;34.72;11.88;;;;;;;;;;5103861;27;20058;-60
2021/03/31 09:06:03;;;;;;;28.55;12.07;;;;;;;;;;5085442;28;20028;-60
2021/03/31 09:08:30;;;;;;;27.55;11.73;;;;;;;;;;5085704;28;20060;-61
2021/03/31 09:10:57;;;;;;;32.85;11.80;;;;;;;;;;5080360;28;20056;-59
2021/03/31 09:13:27;;;;;;;27.90;11.95;;;;;;;;;;5085814;28;20053;-64
2021/03/31 09:15:54;;;;;;;29.55;11.85;;;;;;;;;;5094794;27;20039;-61
2021/03/31 09:18:22;;;;;;;34.95;11.77;;;;;;;;;;5105321;28;20039;-60
2021/03/31 09:20:48;;;;;;;27.90;11.83;;;;;;;;;;5094850;27;20042;-62
2021/03/31 09:23:21;;;;;;;28.67;10.98;;;;;;;;;;5085808;28;20044;-63
2021/03/31 09:25:55;;;;;;;28.90;12.07;;;;;;;;;;5084278;28;20040;-62
2021/03/31 09:28:21;;;;;;;31.48;12.05;;;;;;;;;;5087174;28;20069;-64
2021/03/31 09:30:50;;;;;;;40.10;12.93;;;;;;;;;;5101774;28;20054;-60
2021/03/31 09:33:25;;;;;;;;;;;;;;;;;;5103532;28;20124;-64
2021/03/31 09:35:54;;;;;;;24.58;11.40;;;;;;;;;;5095098;28;19931;-61
2021/03/31 09:38:27;;;;;;;28.50;11.52;;;;;;;;;;5084392;28;20036;-62
2021/03/31 09:41:01;;;;;;;32.65;11.80;;;;;;;;;;5085360;28;20016;-59
2021/03/31 09:43:28;;;;;;;32.00;12.15;;;;;;;;;;5083642;28;20040;-64
2021/03/31 09:45:54;;;;;;;28.35;12.10;;;;;;;;;;5094077;28;20040;-62
2021/03/31 09:48:20;;;;;;;27.33;11.93;;;;;;;;;;5104540;28;20077;-65
2021/03/31 09:50:46;;;;;;;33.33;12.35;;;;;;;;;;5105180;28;20039;-64
2021/03/31 09:53:15;;;;;;;30.75;11.80;;;;;;;;;;5066342;28;20081;-61
2021/03/31 09:55:41;;;;;;;28.65;12.57;;;;;;;;;;5064242;28;20063;-63
2021/03/31 09:58:07;;;;;;;32.95;12.63;;;;;;;;;;5060622;28;20040;-64
2021/03/31 10:00:34;;;;;;;27.65;11.35;;;;;;;;;;5066218;28;20040;-65
2021/03/31 10:03:12;;;;;;;30.23;12.45;;;;;;;;;;5061553;28;20053;-64
2021/03/31 10:05:38;;;;;;;29.77;12.63;;;;;;;;;;5064049;28;20041;-63
2021/03/31 10:08:06;;;;;;;31.10;11.30;;;;;;;;;;5059590;28;20047;-64
2021/03/31 10:10:39;;;;;;;43.05;13.32;;;;;;;;;;5064112;28;20048;-65
2021/03/31 10:13:07;;;;;;;33.10;12.90;;;;;;;;;;5060474;28;20040;-64
2021/03/31 10:15:33;;;;;;;28.75;11.93;;;;;;;;;;5062722;28;20037;-65
2021/03/31 10:17:59;;;;;;;32.17;12.43;;;;;;;;;;5060207;28;20051;-64
2021/03/31 10:20:29;;;;;;;34.13;12.63;;;;;;;;;;5065392;28;20033;-64
2021/03/31 10:22:58;;;;;;;36.30;12.68;;;;;;;;;;5066868;28;20101;-64
2021/03/31 10:25:25;;;;;;;38.92;14.30;;;;;;;;;;5071920;28;20042;-64
2021/03/31 10:27:52;;;;;;;36.00;15.30;;;;;;;;;;5064183;28;20036;-64
2021/03/31 10:30:28;;;;;;;42.50;14.18;;;;;;;;;;5083270;28;20040;-65
2021/03/31 10:32:55;;;;;;;36.67;13.77;;;;;;;;;;5066651;28;20033;-64
2021/03/31 10:35:43;;;;;;;35.75;13.95;;;;;;;;;;5062630;28;20037;-65
2021/03/31 10:38:16;;;;;;;41.78;13.57;;;;;;;;;;5061656;28;20047;-64
2021/03/31 10:51:55;;;;;;;37.47;13.20;;;;;;;;;;5026693;28;20040;-61
2021/03/31 10:54:25;;;;;;;37.47;13.05;;;;;;;;;;5096671;28;20043;-60
2021/03/31 10:56:53;;;;;;;34.67;14.20;;;;;;;;;;5104390;28;20076;-61
2021/03/31 10:59:20;;;;;;;36.55;14.43;;;;;;;;;;5098137;28;20044;-61
2021/03/31 11:01:46;;;;;;;38.17;13.90;;;;;;;;;;5102785;28;20071;-60
2021/03/31 11:04:14;;;;;;;35.75;14.35;;;;;;;;;;5104652;27;20043;-64
2021/03/31 11:06:40;;;;;;;49.15;14.68;;;;;;;;;;5111810;28;20083;-63
2021/03/31 11:09:06;;;;;;;35.03;14.00;;;;;;;;;;5100226;27;20031;-65
2021/03/31 11:11:32;;;;;;;28.50;13.52;;;;;;;;;;5096389;27;20057;-65
2021/03/31 11:13:58;;;;;;;33.17;13.93;;;;;;;;;;5105249;27;20051;-64
2021/03/31 11:16:26;;;;;;;31.75;13.60;;;;;;;;;;5101752;27;20028;-64
2021/03/31 11:19:00;;;;;;;32.93;12.80;;;;;;;;;;5105752;27;20036;-65
2021/03/31 11:27:02;;;;;;;36.28;14.18;;;;;;;;;;5105128;28;20028;-64
2021/03/31 11:29:28;;;;;;;29.90;12.95;;;;;;;;;;5106174;28;20098;-65
2021/03/31 11:31:55;;;;;;;31.52;13.02;;;;;;;;;;5106036;27;20040;-65
2021/03/31 11:34:21;;;;;;;30.70;12.57;;;;;;;;;;5106016;28;20039;-66
2021/03/31 11:36:49;;;;;;;30.98;13.25;;;;;;;;;;5104799;27;20024;-62
2021/03/31 11:39:16;;;;;;;30.38;13.93;;;;;;;;;;5106693;28;20031;-63
2021/03/31 11:41:42;;;;;;;36.33;15.27;;;;;;;;;;5092367;28;20044;-66
2021/03/31 11:44:10;;;;;;;39.10;14.27;;;;;;;;;;5086485;28;20036;-64
2021/03/31 11:46:36;;;;;;;32.47;14.25;;;;;;;;;;5082908;28;20117;-66
2021/03/31 11:49:02;;;;;;;32.47;13.45;;;;;;;;;;5089467;28;20036;-65
2021/03/31 11:51:28;;;;;;;30.77;14.02;;;;;;;;;;5096884;28;20033;-65
2021/03/31 11:53:55;;;;;;;37.58;14.25;;;;;;;;;;5095509;28;20087;-66
2021/03/31 11:56:21;;;;;;;33.30;11.57;;;;;;;;;;5085261;28;20043;-63
2021/03/31 11:58:47;;;;;;;28.50;12.15;;;;;;;;;;5089738;28;20032;-66
2021/03/31 12:01:13;;;;;;;31.95;14.40;;;;;;;;;;5086966;28;20032;-64
2021/03/31 12:03:41;;;;;;;35.53;13.48;;;;;;;;;;5107323;28;20072;-62
2021/03/31 12:06:08;;;;;;;29.83;13.07;;;;;;;;;;5089318;28;20035;-65
2021/03/31 12:08:34;;;;;;;27.83;12.18;;;;;;;;;;5085107;28;20040;-65
2021/03/31 12:11:00;;;;;;;30.45;12.43;;;;;;;;;;5089524;28;20047;-67
2021/03/31 12:13:27;;;;;;;29.85;12.23;;;;;;;;;;5121159;27;20039;-66
2021/03/31 12:15:53;;;;;;;32.72;12.43;;;;;;;;;;5128292;27;20051;-63
2021/03/31 12:18:19;;;;;;;33.10;12.52;;;;;;;;;;5123311;27;20112;-62
2021/03/31 12:20:45;;;;;;;30.55;13.13;;;;;;;;;;5107924;28;20119;-67
2021/03/31 12:23:15;;;;;;;29.88;13.20;;;;;;;;;;5105633;28;20032;-66
2021/03/31 12:25:43;;;;;;;27.75;13.68;;;;;;;;;;5096538;28;20032;-65
2021/03/31 12:28:10;;;;;;;30.30;12.75;;;;;;;;;;5095511;28;20043;-61
2021/03/31 12:30:36;;;;;;;32.80;13.68;;;;;;;;;;5109399;28;20043;-62
2021/03/31 12:33:04;;;;;;;27.52;12.07;;;;;;;;;;5103920;28;20071;-62
2021/03/31 12:35:30;;;;;;;31.08;13.32;;;;;;;;;;5109114;28;20032;-68
2021/03/31 12:37:56;;;;;;;32.85;14.23;;;;;;;;;;5105577;28;20050;-61
2021/03/31 12:40:22;;;;;;;33.95;14.00;;;;;;;;;;5109766;28;20028;-64
2021/03/31 12:42:50;;;;;;;37.78;15.05;;;;;;;;;;5104649;28;20031;-64
2021/03/31 12:45:16;;;;;;;38.83;14.30;;;;;;;;;;5106343;28;20054;-65
2021/03/31 12:47:42;;;;;;;34.47;14.93;;;;;;;;;;5111012;28;20047;-67
2021/03/31 12:50:09;;;;;;;37.45;14.20;;;;;;;;;;5104928;28;20027;-66
2021/03/31 12:52:40;;;;;;;40.85;13.43;;;;;;;;;;5128545;27;20068;-69
2021/03/31 12:55:11;;;;;;;36.88;13.35;;;;;;;;;;5102078;28;20113;-68
2021/03/31 12:57:38;;;;;;;31.17;13.13;;;;;;;;;;5106646;28;20075;-64
2021/03/31 13:00:05;;;;;;;30.08;13.05;;;;;;;;;;5103807;28;20039;-67
2021/03/31 13:02:31;;;;;;;36.65;14.43;;;;;;;;;;5108395;28;20108;-63
2021/03/31 13:04:57;;;;;;;41.75;13.80;;;;;;;;;;5122827;27;20047;-63
2021/03/31 13:07:25;;;;;;;37.78;14.93;;;;;;;;;;5109559;28;20027;-68
2021/03/31 13:09:51;;;;;;;38.55;13.00;;;;;;;;;;5082524;27;20032;-65
2021/03/31 13:12:20;;;;;;;37.35;13.50;;;;;;;;;;5103137;27;20067;-64
2021/03/31 13:17:42;;;;;;;33.00;12.60;;;;;;;;;;5105494;28;20065;-62
2021/03/31 13:22:56;;;;;;;36.42;13.80;;;;;;;;;;5107223;28;20040;-66
2021/03/31 13:25:24;;;;;;;34.58;13.05;;;;;;;;;;5104997;28;20035;-65
2021/03/31 13:30:52;;;;;;;29.98;11.38;;;;;;;;;;5085531;28;19967;-61
2021/03/31 13:33:20;;;;;;;35.83;12.52;;;;;;;;;;5100318;28;20050;-61
2021/03/31 13:35:53;;;;;;;;;;;;;;;;;;5095631;28;20040;-63
2021/03/31 13:38:23;;;;;;;32.85;11.20;;;;;;;;;;5108827;28;19924;-68
2021/03/31 13:40:49;;;;;;;28.75;11.77;;;;;;;;;;5098759;28;20109;-65
2021/03/31 13:43:17;;;;;;;32.97;12.48;;;;;;;;;;5105711;28;20056;-66
2021/03/31 13:45:43;;;;;;;39.03;12.40;;;;;;;;;;5106940;28;20024;-65
2021/03/31 13:48:13;;;;;;;34.47;12.95;;;;;;;;;;5125660;27;20101;-63
2021/03/31 13:50:41;;;;;;;32.30;12.27;;;;;;;;;;5116780;27;20044;-68
2021/03/31 13:53:08;;;;;;;27.45;10.45;;;;;;;;;;5105545;28;20068;-65
2021/03/31 13:55:36;;;;;;;31.92;11.63;;;;;;;;;;5101729;28;20040;-67
2021/03/31 13:58:03;;;;;;;32.72;11.90;;;;;;;;;;5126447;27;20123;-66
2021/03/31 14:00:34;;;;;;;37.03;12.05;;;;;;;;;;5125202;27;20035;-61
2021/03/31 14:03:02;;;;;;;33.10;11.65;;;;;;;;;;5103404;27;20035;-63
2021/03/31 14:05:28;;;;;;;27.15;10.65;;;;;;;;;;5124921;27;20063;-65
2021/03/31 14:07:54;;;;;;;27.58;12.30;;;;;;;;;;5120956;27;20027;-66
2021/03/31 14:10:20;;;;;;;32.95;11.23;;;;;;;;;;5126747;27;20035;-63
2021/03/31 14:12:55;;;;;;;28.27;10.32;;;;;;;;;;5126184;27;20031;-61
2021/03/31 14:15:22;;;;;;;31.17;9.18;;;;;;;;;;5107507;28;20023;-65
2021/03/31 14:17:48;;;;;;;22.25;8.63;;;;;;;;;;5102682;27;20039;-63
2021/03/31 14:20:16;;;;;;;21.60;8.10;;;;;;;;;;5104928;27;20053;-61
2021/03/31 14:22:43;;;;;;;23.52;8.98;;;;;;;;;;5101472;28;20058;-65
2021/03/31 14:25:11;;;;;;;24.70;9.40;;;;;;;;;;5105441;28;20046;-65
2021/03/31 14:27:37;;;;;;;20.77;9.07;;;;;;;;;;5104482;28;20027;-67
2021/03/31 14:30:04;;;;;;;34.75;11.85;;;;;;;;;;5125755;27;20029;-64
2021/03/31 14:32:30;;;;;;;29.60;10.73;;;;;;;;;;5102358;28;20036;-61
2021/03/31 14:34:56;;;;;;;29.20;11.57;;;;;;;;;;5107690;28;20031;-63
2021/03/31 14:37:23;;;;;;;31.20;12.75;;;;;;;;;;5123279;27;20114;-65
2021/03/31 14:39:49;;;;;;;29.60;11.15;;;;;;;;;;5107610;28;20028;-61
2021/03/31 14:42:15;;;;;;;29.95;10.55;;;;;;;;;;5105704;27;20054;-66
2021/03/31 14:45:01;;;;;;;28.15;10.57;;;;;;;;;;5122662;27;20039;-63
2021/03/31 14:47:30;;;;;;;29.10;11.90;;;;;;;;;;5124243;27;20032;-65
2021/03/31 14:49:56;;;;;;;29.05;11.20;;;;;;;;;;5096292;27;20042;-67
2021/03/31 15:00:35;;;;;;;34.95;12.27;;;;;;;;;;5082067;28;20033;-68
2021/03/31 15:03:01;;;;;;;34.22;14.10;;;;;;;;;;5088775;28;20043;-61